sensor_id;sensor_type;location;lat;lon;timestamp;P1;durP1;ratioP1;P2;durP2;ratioP2
60372;SDS011;46216;52.220;5.134;2022-12-29T00:01:29;4.45;;;3.63;;
60372;SDS011;46216;52.220;5.134;2022-12-29T00:03:55;4.13;;;3.42;;
60372;SDS011;46216;52.220;5.134;2022-12-29T00:06:20;5.38;;;3.60;;
60372;SDS011;46216;52.220;5.134;2022-12-29T00:08:45;5.05;;;3.60;;
60372;SDS011;46216;52.220;5.134;2022-12-29T00:11:12;4.18;;;3.67;;
60372;SDS011;46216;52.220;5.134;2022-12-29T00:13:39;3.78;;;3.15;;
60372;SDS011;46216;52.220;5.134;2022-12-29T00:16:35;3.50;;;3.17;;
60372;SDS011;46216;52.220;5.134;2022-12-29T00:19:01;3.90;;;3.00;;
60372;SDS011;46216;52.220;5.134;2022-12-29T00:21:28;3.63;;;3.03;;
60372;SDS011;46216;52.220;5.134;2022-12-29T00:24:14;3.88;;;3.17;;
60372;SDS011;46216;52.220;5.134;2022-12-29T00:29:48;4.05;;;2.50;;
60372;SDS011;46216;52.220;5.134;2022-12-29T00:32:33;3.03;;;2.30;;
60372;SDS011;46216;52.220;5.134;2022-12-29T00:35:38;4.22;;;2.22;;
60372;SDS011;46216;52.220;5.134;2022-12-29T00:38:07;3.40;;;2.20;;
60372;SDS011;46216;52.220;5.134;2022-12-29T00:40:53;2.85;;;2.45;;
60372;SDS011;46216;52.220;5.134;2022-12-29T00:43:37;3.30;;;2.08;;
60372;SDS011;46216;52.220;5.134;2022-12-29T00:46:22;3.17;;;2.13;;
60372;SDS011;46216;52.220;5.134;2022-12-29T00:48:47;2.78;;;2.30;;
60372;SDS011;46216;52.220;5.134;2022-12-29T00:51:31;2.80;;;2.15;;
60372;SDS011;46216;52.220;5.134;2022-12-29T00:53:56;6.75;;;2.25;;
60372;SDS011;46216;52.220;5.134;2022-12-29T00:56:22;5.32;;;2.03;;
60372;SDS011;46216;52.220;5.134;2022-12-29T00:58:47;3.45;;;2.05;;
60372;SDS011;46216;52.220;5.134;2022-12-29T01:01:12;2.80;;;2.20;;
60372;SDS011;46216;52.220;5.134;2022-12-29T01:03:38;3.88;;;2.08;;
60372;SDS011;46216;52.220;5.134;2022-12-29T01:06:04;4.68;;;2.10;;
60372;SDS011;46216;52.220;5.134;2022-12-29T01:08:34;2.50;;;2.10;;
60372;SDS011;46216;52.220;5.134;2022-12-29T01:11:04;2.65;;;2.00;;
60372;SDS011;46216;52.220;5.134;2022-12-29T01:13:34;4.32;;;2.20;;
60372;SDS011;46216;52.220;5.134;2022-12-29T01:16:00;4.03;;;2.03;;
60372;SDS011;46216;52.220;5.134;2022-12-29T01:18:26;2.42;;;2.03;;
60372;SDS011;46216;52.220;5.134;2022-12-29T01:21:02;2.60;;;2.10;;
60372;SDS011;46216;52.220;5.134;2022-12-29T01:23:29;4.80;;;2.17;;
60372;SDS011;46216;52.220;5.134;2022-12-29T01:25:55;3.25;;;2.10;;
60372;SDS011;46216;52.220;5.134;2022-12-29T01:28:21;3.83;;;2.33;;
60372;SDS011;46216;52.220;5.134;2022-12-29T01:30:47;2.92;;;1.80;;
60372;SDS011;46216;52.220;5.134;2022-12-29T01:33:12;3.65;;;2.05;;
60372;SDS011;46216;52.220;5.134;2022-12-29T01:35:37;2.90;;;1.98;;
60372;SDS011;46216;52.220;5.134;2022-12-29T01:38:03;3.50;;;2.20;;
60372;SDS011;46216;52.220;5.134;2022-12-29T01:40:28;4.97;;;2.17;;
60372;SDS011;46216;52.220;5.134;2022-12-29T01:42:53;3.20;;;2.25;;
60372;SDS011;46216;52.220;5.134;2022-12-29T01:45:19;5.35;;;2.58;;
60372;SDS011;46216;52.220;5.134;2022-12-29T01:47:45;2.85;;;2.22;;
60372;SDS011;46216;52.220;5.134;2022-12-29T01:50:21;3.35;;;2.03;;
60372;SDS011;46216;52.220;5.134;2022-12-29T01:52:54;2.90;;;2.15;;
60372;SDS011;46216;52.220;5.134;2022-12-29T01:55:25;4.15;;;2.40;;
60372;SDS011;46216;52.220;5.134;2022-12-29T01:57:52;4.40;;;2.47;;
60372;SDS011;46216;52.220;5.134;2022-12-29T02:00:19;3.63;;;2.08;;
60372;SDS011;46216;52.220;5.134;2022-12-29T02:02:45;2.15;;;1.95;;
60372;SDS011;46216;52.220;5.134;2022-12-29T02:05:23;3.35;;;2.08;;
60372;SDS011;46216;52.220;5.134;2022-12-29T02:08:04;4.28;;;2.30;;
60372;SDS011;46216;52.220;5.134;2022-12-29T02:10:30;3.05;;;2.20;;
60372;SDS011;46216;52.220;5.134;2022-12-29T02:12:57;3.95;;;2.50;;
60372;SDS011;46216;52.220;5.134;2022-12-29T02:15:27;2.42;;;2.00;;
60372;SDS011;46216;52.220;5.134;2022-12-29T02:18:00;3.13;;;2.20;;
60372;SDS011;46216;52.220;5.134;2022-12-29T02:37:05;7.95;;;1.88;;
60372;SDS011;46216;52.220;5.134;2022-12-29T02:39:39;3.88;;;1.50;;
60372;SDS011;46216;52.220;5.134;2022-12-29T02:42:13;3.83;;;1.60;;
60372;SDS011;46216;52.220;5.134;2022-12-29T02:47:27;1.80;;;1.45;;
60372;SDS011;46216;52.220;5.134;2022-12-29T02:50:06;3.60;;;1.40;;
60372;SDS011;46216;52.220;5.134;2022-12-29T02:52:44;3.75;;;1.40;;
60372;SDS011;46216;52.220;5.134;2022-12-29T02:55:13;4.72;;;1.40;;
60372;SDS011;46216;52.220;5.134;2022-12-29T02:57:38;2.10;;;1.25;;
60372;SDS011;46216;52.220;5.134;2022-12-29T03:00:05;7.65;;;1.40;;
60372;SDS011;46216;52.220;5.134;2022-12-29T03:05:27;5.38;;;1.25;;
60372;SDS011;46216;52.220;5.134;2022-12-29T03:08:06;3.22;;;1.02;;
60372;SDS011;46216;52.220;5.134;2022-12-29T03:10:37;4.28;;;0.90;;
60372;SDS011;46216;52.220;5.134;2022-12-29T03:16:16;3.03;;;1.10;;
60372;SDS011;46216;52.220;5.134;2022-12-29T03:18:58;4.00;;;1.10;;
60372;SDS011;46216;52.220;5.134;2022-12-29T03:21:34;5.18;;;1.50;;
60372;SDS011;46216;52.220;5.134;2022-12-29T03:24:24;8.30;;;1.70;;
60372;SDS011;46216;52.220;5.134;2022-12-29T03:26:53;5.85;;;1.30;;
60372;SDS011;46216;52.220;5.134;2022-12-29T03:29:21;6.82;;;1.40;;
60372;SDS011;46216;52.220;5.134;2022-12-29T03:31:48;3.63;;;1.20;;
60372;SDS011;46216;52.220;5.134;2022-12-29T03:34:16;6.13;;;1.30;;
60372;SDS011;46216;52.220;5.134;2022-12-29T03:36:49;8.10;;;1.33;;
60372;SDS011;46216;52.220;5.134;2022-12-29T03:39:20;7.68;;;1.40;;
60372;SDS011;46216;52.220;5.134;2022-12-29T03:41:47;6.30;;;1.40;;
60372;SDS011;46216;52.220;5.134;2022-12-29T03:44:17;5.00;;;1.02;;
60372;SDS011;46216;52.220;5.134;2022-12-29T03:46:42;7.07;;;1.20;;
60372;SDS011;46216;52.220;5.134;2022-12-29T03:49:08;6.07;;;1.35;;
60372;SDS011;46216;52.220;5.134;2022-12-29T03:51:33;5.75;;;1.30;;
60372;SDS011;46216;52.220;5.134;2022-12-29T03:53:59;5.78;;;1.17;;
60372;SDS011;46216;52.220;5.134;2022-12-29T03:56:24;5.32;;;1.10;;
60372;SDS011;46216;52.220;5.134;2022-12-29T03:58:49;8.00;;;1.30;;
60372;SDS011;46216;52.220;5.134;2022-12-29T04:01:15;6.45;;;1.30;;
60372;SDS011;46216;52.220;5.134;2022-12-29T04:03:40;5.25;;;1.10;;
60372;SDS011;46216;52.220;5.134;2022-12-29T04:06:06;6.28;;;1.35;;
60372;SDS011;46216;52.220;5.134;2022-12-29T04:08:32;6.05;;;1.20;;
60372;SDS011;46216;52.220;5.134;2022-12-29T04:10:59;6.18;;;1.23;;
60372;SDS011;46216;52.220;5.134;2022-12-29T04:13:24;5.55;;;1.33;;
60372;SDS011;46216;52.220;5.134;2022-12-29T04:15:49;4.55;;;1.08;;
60372;SDS011;46216;52.220;5.134;2022-12-29T04:18:15;2.75;;;0.90;;
60372;SDS011;46216;52.220;5.134;2022-12-29T04:20:41;6.82;;;1.05;;
60372;SDS011;46216;52.220;5.134;2022-12-29T04:23:24;6.03;;;1.23;;
60372;SDS011;46216;52.220;5.134;2022-12-29T04:25:50;3.33;;;0.95;;
60372;SDS011;46216;52.220;5.134;2022-12-29T04:28:16;7.55;;;1.20;;
60372;SDS011;46216;52.220;5.134;2022-12-29T04:30:42;6.45;;;1.35;;
60372;SDS011;46216;52.220;5.134;2022-12-29T04:33:08;6.70;;;1.48;;
60372;SDS011;46216;52.220;5.134;2022-12-29T04:35:34;5.50;;;1.40;;
60372;SDS011;46216;52.220;5.134;2022-12-29T04:37:59;6.68;;;1.42;;
60372;SDS011;46216;52.220;5.134;2022-12-29T04:40:25;8.15;;;1.30;;
60372;SDS011;46216;52.220;5.134;2022-12-29T04:42:50;7.43;;;1.52;;
60372;SDS011;46216;52.220;5.134;2022-12-29T04:45:15;4.20;;;1.17;;
60372;SDS011;46216;52.220;5.134;2022-12-29T04:47:41;8.63;;;1.30;;
60372;SDS011;46216;52.220;5.134;2022-12-29T04:50:06;9.85;;;1.73;;
60372;SDS011;46216;52.220;5.134;2022-12-29T04:52:32;7.05;;;1.55;;
60372;SDS011;46216;52.220;5.134;2022-12-29T04:54:58;6.82;;;1.30;;
60372;SDS011;46216;52.220;5.134;2022-12-29T04:57:23;9.07;;;1.60;;
60372;SDS011;46216;52.220;5.134;2022-12-29T04:59:48;6.53;;;1.33;;
60372;SDS011;46216;52.220;5.134;2022-12-29T05:02:14;8.30;;;1.48;;
60372;SDS011;46216;52.220;5.134;2022-12-29T05:04:40;5.10;;;1.30;;
60372;SDS011;46216;52.220;5.134;2022-12-29T05:07:05;7.78;;;1.70;;
60372;SDS011;46216;52.220;5.134;2022-12-29T05:09:31;5.90;;;1.48;;
60372;SDS011;46216;52.220;5.134;2022-12-29T05:11:56;8.73;;;1.70;;
60372;SDS011;46216;52.220;5.134;2022-12-29T05:14:22;8.32;;;1.48;;
60372;SDS011;46216;52.220;5.134;2022-12-29T05:16:47;11.27;;;1.90;;
60372;SDS011;46216;52.220;5.134;2022-12-29T05:19:12;9.50;;;3.20;;
60372;SDS011;46216;52.220;5.134;2022-12-29T05:21:37;9.80;;;1.83;;
60372;SDS011;46216;52.220;5.134;2022-12-29T05:24:03;8.35;;;1.60;;
60372;SDS011;46216;52.220;5.134;2022-12-29T05:26:28;6.93;;;1.75;;
60372;SDS011;46216;52.220;5.134;2022-12-29T05:28:54;10.30;;;1.70;;
60372;SDS011;46216;52.220;5.134;2022-12-29T05:31:19;7.88;;;1.83;;
60372;SDS011;46216;52.220;5.134;2022-12-29T05:33:44;10.43;;;1.95;;
60372;SDS011;46216;52.220;5.134;2022-12-29T05:36:10;11.75;;;2.13;;
60372;SDS011;46216;52.220;5.134;2022-12-29T05:38:36;9.82;;;1.90;;
60372;SDS011;46216;52.220;5.134;2022-12-29T05:41:01;7.70;;;1.67;;
60372;SDS011;46216;52.220;5.134;2022-12-29T05:43:27;11.80;;;1.92;;
60372;SDS011;46216;52.220;5.134;2022-12-29T05:45:52;14.32;;;2.17;;
60372;SDS011;46216;52.220;5.134;2022-12-29T05:48:18;9.02;;;1.90;;
60372;SDS011;46216;52.220;5.134;2022-12-29T05:50:47;9.77;;;1.95;;
60372;SDS011;46216;52.220;5.134;2022-12-29T05:53:15;12.30;;;2.20;;
60372;SDS011;46216;52.220;5.134;2022-12-29T05:55:41;10.55;;;1.70;;
60372;SDS011;46216;52.220;5.134;2022-12-29T05:58:08;10.32;;;1.67;;
60372;SDS011;46216;52.220;5.134;2022-12-29T06:00:33;11.63;;;1.88;;
60372;SDS011;46216;52.220;5.134;2022-12-29T06:02:59;9.85;;;1.75;;
60372;SDS011;46216;52.220;5.134;2022-12-29T06:05:24;13.60;;;2.20;;
60372;SDS011;46216;52.220;5.134;2022-12-29T06:07:49;13.15;;;2.05;;
60372;SDS011;46216;52.220;5.134;2022-12-29T06:10:15;7.68;;;1.80;;
60372;SDS011;46216;52.220;5.134;2022-12-29T06:12:40;7.70;;;1.52;;
60372;SDS011;46216;52.220;5.134;2022-12-29T06:15:06;9.00;;;1.90;;
60372;SDS011;46216;52.220;5.134;2022-12-29T06:17:31;11.23;;;2.20;;
60372;SDS011;46216;52.220;5.134;2022-12-29T06:19:57;9.25;;;1.95;;
60372;SDS011;46216;52.220;5.134;2022-12-29T06:22:23;12.63;;;2.30;;
60372;SDS011;46216;52.220;5.134;2022-12-29T06:24:48;17.42;;;2.13;;
60372;SDS011;46216;52.220;5.134;2022-12-29T06:27:14;10.13;;;1.90;;
60372;SDS011;46216;52.220;5.134;2022-12-29T06:29:39;16.27;;;2.13;;
60372;SDS011;46216;52.220;5.134;2022-12-29T06:32:05;13.55;;;2.45;;
60372;SDS011;46216;52.220;5.134;2022-12-29T06:34:31;14.07;;;2.00;;
60372;SDS011;46216;52.220;5.134;2022-12-29T06:36:56;16.52;;;2.35;;
60372;SDS011;46216;52.220;5.134;2022-12-29T06:39:24;11.73;;;2.20;;
60372;SDS011;46216;52.220;5.134;2022-12-29T06:41:53;11.80;;;2.03;;
60372;SDS011;46216;52.220;5.134;2022-12-29T06:44:19;10.60;;;1.80;;
60372;SDS011;46216;52.220;5.134;2022-12-29T06:46:46;10.00;;;2.15;;
60372;SDS011;46216;52.220;5.134;2022-12-29T06:49:12;8.73;;;1.90;;
60372;SDS011;46216;52.220;5.134;2022-12-29T06:51:37;15.43;;;2.10;;
60372;SDS011;46216;52.220;5.134;2022-12-29T06:54:02;13.80;;;2.20;;
60372;SDS011;46216;52.220;5.134;2022-12-29T06:56:28;10.98;;;2.10;;
60372;SDS011;46216;52.220;5.134;2022-12-29T06:58:53;11.55;;;2.30;;
60372;SDS011;46216;52.220;5.134;2022-12-29T07:01:19;11.60;;;2.53;;
60372;SDS011;46216;52.220;5.134;2022-12-29T07:03:44;10.35;;;2.00;;
60372;SDS011;46216;52.220;5.134;2022-12-29T07:06:09;10.77;;;2.30;;
60372;SDS011;46216;52.220;5.134;2022-12-29T07:08:36;15.60;;;2.45;;
60372;SDS011;46216;52.220;5.134;2022-12-29T07:11:01;12.50;;;2.30;;
60372;SDS011;46216;52.220;5.134;2022-12-29T07:13:26;10.77;;;2.67;;
60372;SDS011;46216;52.220;5.134;2022-12-29T07:15:52;9.85;;;2.10;;
60372;SDS011;46216;52.220;5.134;2022-12-29T07:18:17;10.98;;;2.22;;
60372;SDS011;46216;52.220;5.134;2022-12-29T07:20:42;9.73;;;1.90;;
60372;SDS011;46216;52.220;5.134;2022-12-29T07:23:08;12.23;;;2.60;;
60372;SDS011;46216;52.220;5.134;2022-12-29T07:25:33;13.30;;;2.20;;
60372;SDS011;46216;52.220;5.134;2022-12-29T07:28:00;16.45;;;2.30;;
60372;SDS011;46216;52.220;5.134;2022-12-29T07:30:27;11.30;;;2.38;;
60372;SDS011;46216;52.220;5.134;2022-12-29T07:32:52;8.88;;;2.00;;
60372;SDS011;46216;52.220;5.134;2022-12-29T07:35:17;8.93;;;1.65;;
60372;SDS011;46216;52.220;5.134;2022-12-29T07:37:43;10.93;;;1.90;;
60372;SDS011;46216;52.220;5.134;2022-12-29T07:40:08;10.35;;;1.80;;
60372;SDS011;46216;52.220;5.134;2022-12-29T07:42:34;10.35;;;1.85;;
60372;SDS011;46216;52.220;5.134;2022-12-29T07:45:00;9.80;;;2.20;;
60372;SDS011;46216;52.220;5.134;2022-12-29T07:47:25;8.55;;;1.92;;
60372;SDS011;46216;52.220;5.134;2022-12-29T07:49:51;11.88;;;1.95;;
60372;SDS011;46216;52.220;5.134;2022-12-29T07:52:16;6.60;;;1.60;;
60372;SDS011;46216;52.220;5.134;2022-12-29T07:54:42;10.45;;;1.80;;
60372;SDS011;46216;52.220;5.134;2022-12-29T07:57:07;11.27;;;1.80;;
60372;SDS011;46216;52.220;5.134;2022-12-29T07:59:32;11.95;;;1.80;;
60372;SDS011;46216;52.220;5.134;2022-12-29T08:01:58;8.98;;;2.20;;
60372;SDS011;46216;52.220;5.134;2022-12-29T08:04:23;8.10;;;1.60;;
60372;SDS011;46216;52.220;5.134;2022-12-29T08:06:48;10.07;;;1.90;;
60372;SDS011;46216;52.220;5.134;2022-12-29T08:09:14;10.77;;;2.08;;
60372;SDS011;46216;52.220;5.134;2022-12-29T08:11:39;11.20;;;2.28;;
60372;SDS011;46216;52.220;5.134;2022-12-29T08:14:05;13.77;;;2.63;;
60372;SDS011;46216;52.220;5.134;2022-12-29T08:16:31;12.30;;;2.50;;
60372;SDS011;46216;52.220;5.134;2022-12-29T08:18:57;10.48;;;2.20;;
60372;SDS011;46216;52.220;5.134;2022-12-29T08:21:23;11.30;;;2.00;;
60372;SDS011;46216;52.220;5.134;2022-12-29T08:23:49;14.07;;;2.30;;
60372;SDS011;46216;52.220;5.134;2022-12-29T08:26:14;11.77;;;2.63;;
60372;SDS011;46216;52.220;5.134;2022-12-29T08:28:40;14.60;;;2.60;;
60372;SDS011;46216;52.220;5.134;2022-12-29T08:31:05;13.43;;;2.03;;
60372;SDS011;46216;52.220;5.134;2022-12-29T08:33:31;10.48;;;2.30;;
60372;SDS011;46216;52.220;5.134;2022-12-29T08:36:00;9.98;;;1.77;;
60372;SDS011;46216;52.220;5.134;2022-12-29T08:38:27;14.73;;;2.67;;
60372;SDS011;46216;52.220;5.134;2022-12-29T08:40:53;13.50;;;2.35;;
60372;SDS011;46216;52.220;5.134;2022-12-29T08:43:19;14.68;;;2.40;;
60372;SDS011;46216;52.220;5.134;2022-12-29T08:45:44;12.70;;;2.30;;
60372;SDS011;46216;52.220;5.134;2022-12-29T08:48:09;13.88;;;2.55;;
60372;SDS011;46216;52.220;5.134;2022-12-29T08:50:35;13.00;;;2.13;;
60372;SDS011;46216;52.220;5.134;2022-12-29T08:53:00;12.95;;;2.22;;
60372;SDS011;46216;52.220;5.134;2022-12-29T08:55:25;14.93;;;2.38;;
60372;SDS011;46216;52.220;5.134;2022-12-29T08:57:51;14.15;;;2.33;;
60372;SDS011;46216;52.220;5.134;2022-12-29T09:00:17;12.85;;;2.35;;
60372;SDS011;46216;52.220;5.134;2022-12-29T09:02:42;15.95;;;2.60;;
60372;SDS011;46216;52.220;5.134;2022-12-29T09:05:08;13.25;;;2.53;;
60372;SDS011;46216;52.220;5.134;2022-12-29T09:07:34;16.48;;;2.20;;
60372;SDS011;46216;52.220;5.134;2022-12-29T09:10:00;11.70;;;2.03;;
60372;SDS011;46216;52.220;5.134;2022-12-29T09:12:25;12.70;;;2.53;;
60372;SDS011;46216;52.220;5.134;2022-12-29T09:14:50;12.43;;;2.67;;
60372;SDS011;46216;52.220;5.134;2022-12-29T09:17:16;14.60;;;1.92;;
60372;SDS011;46216;52.220;5.134;2022-12-29T09:20:00;13.68;;;2.63;;
60372;SDS011;46216;52.220;5.134;2022-12-29T09:22:25;12.98;;;2.35;;
60372;SDS011;46216;52.220;5.134;2022-12-29T09:24:51;15.90;;;2.90;;
60372;SDS011;46216;52.220;5.134;2022-12-29T09:27:16;10.93;;;2.25;;
60372;SDS011;46216;52.220;5.134;2022-12-29T09:29:41;11.63;;;2.40;;
60372;SDS011;46216;52.220;5.134;2022-12-29T09:32:06;12.88;;;2.15;;
60372;SDS011;46216;52.220;5.134;2022-12-29T09:34:32;7.45;;;2.03;;
60372;SDS011;46216;52.220;5.134;2022-12-29T09:36:57;9.25;;;2.00;;
60372;SDS011;46216;52.220;5.134;2022-12-29T09:39:23;15.13;;;2.30;;
60372;SDS011;46216;52.220;5.134;2022-12-29T09:47:41;8.23;;;2.17;;
60372;SDS011;46216;52.220;5.134;2022-12-29T09:52:48;11.75;;;2.92;;
60372;SDS011;46216;52.220;5.134;2022-12-29T09:55:21;12.00;;;2.38;;
60372;SDS011;46216;52.220;5.134;2022-12-29T09:57:54;17.08;;;2.65;;
60372;SDS011;46216;52.220;5.134;2022-12-29T10:00:28;15.10;;;2.90;;
60372;SDS011;46216;52.220;5.134;2022-12-29T10:03:16;14.23;;;2.83;;
60372;SDS011;46216;52.220;5.134;2022-12-29T10:05:52;13.73;;;2.78;;
60372;SDS011;46216;52.220;5.134;2022-12-29T10:11:07;14.80;;;2.95;;
60372;SDS011;46216;52.220;5.134;2022-12-29T10:14:02;12.68;;;2.80;;
60372;SDS011;46216;52.220;5.134;2022-12-29T10:22:02;11.93;;;2.28;;
60372;SDS011;46216;52.220;5.134;2022-12-29T10:24:40;12.15;;;2.83;;
60372;SDS011;46216;52.220;5.134;2022-12-29T10:27:13;14.60;;;2.67;;
60372;SDS011;46216;52.220;5.134;2022-12-29T10:29:42;13.15;;;2.65;;
60372;SDS011;46216;52.220;5.134;2022-12-29T10:32:33;14.35;;;3.03;;
60372;SDS011;46216;52.220;5.134;2022-12-29T10:35:11;14.00;;;3.00;;
60372;SDS011;46216;52.220;5.134;2022-12-29T10:38:01;9.88;;;2.40;;
60372;SDS011;46216;52.220;5.134;2022-12-29T10:40:38;12.13;;;2.78;;
60372;SDS011;46216;52.220;5.134;2022-12-29T10:43:29;16.38;;;3.25;;
60372;SDS011;46216;52.220;5.134;2022-12-29T10:45:59;14.48;;;3.08;;
60372;SDS011;46216;52.220;5.134;2022-12-29T10:48:30;13.50;;;2.67;;
60372;SDS011;46216;52.220;5.134;2022-12-29T10:50:58;17.98;;;3.50;;
60372;SDS011;46216;52.220;5.134;2022-12-29T10:54:04;18.90;;;3.83;;
60372;SDS011;46216;52.220;5.134;2022-12-29T10:56:59;15.48;;;4.10;;
60372;SDS011;46216;52.220;5.134;2022-12-29T10:59:30;15.48;;;3.08;;
60372;SDS011;46216;52.220;5.134;2022-12-29T11:07:18;15.52;;;3.35;;
60372;SDS011;46216;52.220;5.134;2022-12-29T11:09:45;21.20;;;3.88;;
60372;SDS011;46216;52.220;5.134;2022-12-29T11:12:44;20.27;;;4.05;;
60372;SDS011;46216;52.220;5.134;2022-12-29T11:15:11;23.48;;;3.95;;
60372;SDS011;46216;52.220;5.134;2022-12-29T11:17:57;19.67;;;3.45;;
60372;SDS011;46216;52.220;5.134;2022-12-29T11:20:29;22.88;;;3.95;;
60372;SDS011;46216;52.220;5.134;2022-12-29T11:22:54;19.02;;;3.85;;
60372;SDS011;46216;52.220;5.134;2022-12-29T11:25:20;17.05;;;3.30;;
60372;SDS011;46216;52.220;5.134;2022-12-29T11:27:55;16.35;;;3.33;;
60372;SDS011;46216;52.220;5.134;2022-12-29T11:30:25;23.95;;;4.13;;
60372;SDS011;46216;52.220;5.134;2022-12-29T11:32:54;19.75;;;3.47;;
60372;SDS011;46216;52.220;5.134;2022-12-29T11:35:31;23.50;;;3.97;;
60372;SDS011;46216;52.220;5.134;2022-12-29T11:37:57;21.77;;;4.22;;
60372;SDS011;46216;52.220;5.134;2022-12-29T11:40:23;20.45;;;3.40;;
60372;SDS011;46216;52.220;5.134;2022-12-29T11:42:57;16.35;;;3.17;;
60372;SDS011;46216;52.220;5.134;2022-12-29T11:45:28;19.35;;;3.45;;
60372;SDS011;46216;52.220;5.134;2022-12-29T11:48:08;20.33;;;3.22;;
60372;SDS011;46216;52.220;5.134;2022-12-29T11:50:40;18.63;;;3.00;;
60372;SDS011;46216;52.220;5.134;2022-12-29T11:55:40;17.65;;;3.30;;
60372;SDS011;46216;52.220;5.134;2022-12-29T11:58:15;17.40;;;3.55;;
60372;SDS011;46216;52.220;5.134;2022-12-29T12:00:41;19.10;;;3.47;;
60372;SDS011;46216;52.220;5.134;2022-12-29T12:03:11;16.63;;;3.83;;
60372;SDS011;46216;52.220;5.134;2022-12-29T12:05:46;16.70;;;2.92;;
60372;SDS011;46216;52.220;5.134;2022-12-29T12:08:18;15.57;;;2.95;;
60372;SDS011;46216;52.220;5.134;2022-12-29T12:10:58;18.52;;;2.97;;
60372;SDS011;46216;52.220;5.134;2022-12-29T12:13:34;15.80;;;2.90;;
60372;SDS011;46216;52.220;5.134;2022-12-29T12:16:09;20.92;;;3.65;;
60372;SDS011;46216;52.220;5.134;2022-12-29T12:21:25;19.27;;;3.55;;
60372;SDS011;46216;52.220;5.134;2022-12-29T12:27:04;17.88;;;3.63;;
60372;SDS011;46216;52.220;5.134;2022-12-29T12:35:10;16.77;;;2.80;;
60372;SDS011;46216;52.220;5.134;2022-12-29T12:37:41;12.40;;;2.67;;
60372;SDS011;46216;52.220;5.134;2022-12-29T12:48:57;12.80;;;2.40;;
60372;SDS011;46216;52.220;5.134;2022-12-29T12:51:53;15.43;;;2.40;;
60372;SDS011;46216;52.220;5.134;2022-12-29T12:55:46;13.07;;;2.20;;
60372;SDS011;46216;52.220;5.134;2022-12-29T13:00:51;18.48;;;2.45;;
60372;SDS011;46216;52.220;5.134;2022-12-29T13:06:41;14.93;;;2.90;;
60372;SDS011;46216;52.220;5.134;2022-12-29T13:09:57;16.73;;;2.92;;
60372;SDS011;46216;52.220;5.134;2022-12-29T13:12:31;12.43;;;2.58;;
60372;SDS011;46216;52.220;5.134;2022-12-29T13:22:48;11.07;;;2.17;;
60372;SDS011;46216;52.220;5.134;2022-12-29T13:30:29;10.43;;;1.83;;
60372;SDS011;46216;52.220;5.134;2022-12-29T13:33:17;13.07;;;2.42;;
60372;SDS011;46216;52.220;5.134;2022-12-29T13:38:25;10.18;;;1.92;;
60372;SDS011;46216;52.220;5.134;2022-12-29T13:41:03;15.00;;;2.08;;
60372;SDS011;46216;52.220;5.134;2022-12-29T13:43:33;12.50;;;2.20;;
60372;SDS011;46216;52.220;5.134;2022-12-29T13:46:08;11.20;;;2.38;;
60372;SDS011;46216;52.220;5.134;2022-12-29T13:51:09;13.75;;;2.60;;
60372;SDS011;46216;52.220;5.134;2022-12-29T13:56:26;13.40;;;2.55;;
60372;SDS011;46216;52.220;5.134;2022-12-29T14:02:21;16.08;;;2.97;;
60372;SDS011;46216;52.220;5.134;2022-12-29T14:04:59;15.32;;;2.60;;
60372;SDS011;46216;52.220;5.134;2022-12-29T14:07:27;12.82;;;2.50;;
60372;SDS011;46216;52.220;5.134;2022-12-29T14:09:54;16.67;;;2.90;;
60372;SDS011;46216;52.220;5.134;2022-12-29T14:14:53;18.35;;;3.00;;
60372;SDS011;46216;52.220;5.134;2022-12-29T14:17:20;13.55;;;2.80;;
60372;SDS011;46216;52.220;5.134;2022-12-29T14:19:46;13.38;;;3.00;;
60372;SDS011;46216;52.220;5.134;2022-12-29T14:22:16;9.32;;;2.50;;
60372;SDS011;46216;52.220;5.134;2022-12-29T14:24:48;12.32;;;2.80;;
60372;SDS011;46216;52.220;5.134;2022-12-29T14:34:45;7.05;;;1.70;;
60372;SDS011;46216;52.220;5.134;2022-12-29T14:37:26;7.20;;;1.60;;
60372;SDS011;46216;52.220;5.134;2022-12-29T14:42:59;8.05;;;1.60;;
60372;SDS011;46216;52.220;5.134;2022-12-29T14:45:28;9.07;;;2.30;;
60372;SDS011;46216;52.220;5.134;2022-12-29T14:47:55;7.88;;;1.40;;
60372;SDS011;46216;52.220;5.134;2022-12-29T14:53:10;4.03;;;0.88;;
60372;SDS011;46216;52.220;5.134;2022-12-29T14:56:09;4.10;;;1.20;;
60372;SDS011;46216;52.220;5.134;2022-12-29T14:58:40;5.63;;;1.52;;
60372;SDS011;46216;52.220;5.134;2022-12-29T15:01:17;5.22;;;1.45;;
60372;SDS011;46216;52.220;5.134;2022-12-29T15:03:45;5.22;;;1.65;;
60372;SDS011;46216;52.220;5.134;2022-12-29T15:06:16;9.35;;;1.45;;
60372;SDS011;46216;52.220;5.134;2022-12-29T15:08:51;8.25;;;1.77;;
60372;SDS011;46216;52.220;5.134;2022-12-29T15:11:24;10.65;;;1.98;;
60372;SDS011;46216;52.220;5.134;2022-12-29T15:17:08;8.13;;;2.08;;
60372;SDS011;46216;52.220;5.134;2022-12-29T15:19:54;10.20;;;2.17;;
60372;SDS011;46216;52.220;5.134;2022-12-29T15:22:21;11.90;;;2.47;;
60372;SDS011;46216;52.220;5.134;2022-12-29T15:24:49;10.82;;;2.20;;
60372;SDS011;46216;52.220;5.134;2022-12-29T15:27:19;10.75;;;3.00;;
60372;SDS011;46216;52.220;5.134;2022-12-29T15:29:46;10.63;;;2.53;;
60372;SDS011;46216;52.220;5.134;2022-12-29T15:34:40;13.15;;;2.92;;
60372;SDS011;46216;52.220;5.134;2022-12-29T15:37:06;12.63;;;2.53;;
60372;SDS011;46216;52.220;5.134;2022-12-29T15:39:32;9.80;;;2.35;;
60372;SDS011;46216;52.220;5.134;2022-12-29T15:44:43;13.60;;;2.75;;
60372;SDS011;46216;52.220;5.134;2022-12-29T15:47:19;13.57;;;3.00;;
60372;SDS011;46216;52.220;5.134;2022-12-29T15:49:47;9.98;;;2.00;;
60372;SDS011;46216;52.220;5.134;2022-12-29T15:52:19;11.80;;;2.25;;
60372;SDS011;46216;52.220;5.134;2022-12-29T15:54:46;13.10;;;2.55;;
60372;SDS011;46216;52.220;5.134;2022-12-29T15:59:46;10.85;;;2.60;;
60372;SDS011;46216;52.220;5.134;2022-12-29T16:02:13;10.25;;;2.45;;
60372;SDS011;46216;52.220;5.134;2022-12-29T16:04:39;8.85;;;2.20;;
60372;SDS011;46216;52.220;5.134;2022-12-29T16:07:05;9.50;;;2.60;;
60372;SDS011;46216;52.220;5.134;2022-12-29T16:09:47;9.90;;;2.22;;
60372;SDS011;46216;52.220;5.134;2022-12-29T16:12:19;9.73;;;2.33;;
60372;SDS011;46216;52.220;5.134;2022-12-29T16:14:54;16.55;;;3.10;;
60372;SDS011;46216;52.220;5.134;2022-12-29T16:17:30;11.75;;;2.45;;
60372;SDS011;46216;52.220;5.134;2022-12-29T16:19:59;13.90;;;2.42;;
60372;SDS011;46216;52.220;5.134;2022-12-29T16:22:34;11.52;;;2.38;;
60372;SDS011;46216;52.220;5.134;2022-12-29T16:25:06;11.38;;;2.35;;
60372;SDS011;46216;52.220;5.134;2022-12-29T16:27:41;9.35;;;2.05;;
60372;SDS011;46216;52.220;5.134;2022-12-29T16:32:56;10.70;;;2.40;;
60372;SDS011;46216;52.220;5.134;2022-12-29T16:35:23;9.82;;;2.28;;
60372;SDS011;46216;52.220;5.134;2022-12-29T16:48:30;10.00;;;2.00;;
60372;SDS011;46216;52.220;5.134;2022-12-29T16:51:05;7.47;;;1.90;;
60372;SDS011;46216;52.220;5.134;2022-12-29T16:53:38;8.50;;;2.45;;
60372;SDS011;46216;52.220;5.134;2022-12-29T16:56:12;9.15;;;1.95;;
60372;SDS011;46216;52.220;5.134;2022-12-29T16:58:46;7.72;;;2.10;;
60372;SDS011;46216;52.220;5.134;2022-12-29T17:01:12;11.30;;;1.88;;
60372;SDS011;46216;52.220;5.134;2022-12-29T17:03:40;8.75;;;1.90;;
60372;SDS011;46216;52.220;5.134;2022-12-29T17:06:15;10.77;;;3.40;;
60372;SDS011;46216;52.220;5.134;2022-12-29T17:08:42;6.18;;;2.00;;
60372;SDS011;46216;52.220;5.134;2022-12-29T17:11:20;8.00;;;2.20;;
60372;SDS011;46216;52.220;5.134;2022-12-29T17:14:19;12.43;;;2.08;;
60372;SDS011;46216;52.220;5.134;2022-12-29T17:16:47;10.20;;;1.80;;
60372;SDS011;46216;52.220;5.134;2022-12-29T17:19:17;9.68;;;2.42;;
60372;SDS011;46216;52.220;5.134;2022-12-29T17:21:44;7.20;;;1.77;;